Weather observations for the past three days for
Vernal Airport
Metric (Imperial)
Date Time (mdt) Wind (kph) Vis. (km) Weather Sky Cond. Temperature (ºC) Relative Humidity Wind Chill (°C) Heat Index (°C) Pressure Precipitation (cm)
Air Dwpt 6 hour altimeter (cm) sea level (mb) 1 hr 3 hr 6 hr
Max. Min.
10 09:53 Calm 16.09 Fair CLR 16.7 -4.4 23% 76.91 1020.6
10 08:53 Calm 16.09 Fair CLR 14.4 -3.3 29% 76.91 1020.7
10 07:53 Calm 16.09 Fair CLR 11.1 -2.2 40% 76.91 1021.0
10 06:53 SW 7 16.09 Fair CLR 6.1 -1.7 58% 5 76.89 1020.9
10 05:53 NW 7 16.09 Fair CLR 5.6 -2.8 13.3 5.6 55% 4 76.84 1020.0
10 04:53 N 9 16.09 Fair CLR 8.3 -3.9 42% 7 76.81 1019.3
10 03:53 NW 11 16.09 Fair CLR 7.2 -2.2 52% 5 76.78 1018.9
10 02:53 N 15 16.09 Fair CLR 9.4 -2.8 43% 7 76.73 1018.3
10 01:53 N 11 16.09 Fair CLR 11.1 -3.9 35% 76.71 1017.8
10 00:53 NE 26 16.09 Fair CLR 12.8 -2.8 34% 76.66 1016.8
09 23:53 N 11 16.09 Fair CLR 13.3 -1.7 25 12.8 36% 76.63 1016.8
09 22:53 N 11 16.09 Fair CLR 13.9 -3.9 29% 76.58 1015.8
09 21:53 N 11 16.09 Fair CLR 16.7 -10 15% 76.45 1014.1
09 20:53 NW 20 16.09 Fair CLR 18.9 -11.7 11% 76.35 1012.9
09 19:53 N 37 G 59 16.09 Fair and Breezy CLR 20 -11.7 11% 76.23 1011.3
09 18:53 NW 30 G 52 16.09 Fair CLR 22.8 -13.3 8% 76.12 1010.3
09 17:53 N 17 G 33 16.09 Fair CLR 25 -8.9 26.1 21.1 10% 24 76.07 1008.9
09 16:53 NE 19 16.09 Fair CLR 24.4 -10 9% 24 76.05 1008.6
09 15:53 W 13 G 33 16.09 Fair CLR 25.6 -10 9% 25 76.1 1008.7
09 14:53 Calm 16.09 Fair CLR 23.9 -9.4 10% 24 76.17 1010.0
09 13:53 Calm 16.09 Fair CLR 22.8 -9.4 11% 76.23 1010.8
09 12:53 S 17 16.09 Fair CLR 22.8 -6.7 13% 76.28 1011.9
09 11:53 E 9 16.09 Fair CLR 21.1 -7.8 21.7 6.1 14% 76.3 1012.4
09 10:53 S 15 16.09 Fair CLR 20 -4.4 19% 76.33 1012.1
09 09:53 SE 11 16.09 Fair CLR 18.3 0 29% 76.33 1012.2
09 08:53 SE 9 16.09 Fair CLR 15.6 -1.1 32% 76.33 1012.3
09 07:53 NE 7 16.09 Fair CLR 12.8 -0.6 40% 76.3 1012.4
09 06:53 NW 9 16.09 Fair CLR 7.8 0 58% 6 76.25 1012.1
09 05:53 NW 9 16.09 Fair CLR 9.4 0 13.3 8.3 52% 8 76.2 1010.6
09 04:53 SW 6 16.09 Fair CLR 11.1 0 47% 76.17 1010.3
09 03:53 W 7 16.09 Fair CLR 12.2 -1.1 40% 76.17 1010.0
09 02:53 W 11 16.09 Fair CLR 11.1 -0.6 45% 76.15 1010.0
09 01:53 NW 11 16.09 Fair CLR 12.2 -1.1 40% 76.15 1009.9
09 00:53 N 11 16.09 Fair CLR 10.6 1.1 52% 76.17 1010.7
08 23:53 W 7 16.09 Fair CLR 11.7 0 25.6 11.7 45% 76.17 1010.8
08 22:53 W 9 16.09 Fair CLR 16.7 -2.8 26% 76.15 1009.9
08 21:53 NW 11 16.09 Fair CLR 18.3 -3.3 23% 76.1 1009.6
08 20:53 N 19 G 31 16.09 Fair CLR 20 -3.3 21% 76.02 1008.7
08 19:53 SW 13 16.09 Fair CLR 20.6 -2.8 21% 75.92 1007.3
08 18:53 W 24 G 39 16.09 Fair CLR 23.3 -3.3 17% 75.92 1007.5
08 17:53 Calm 16.09 Partly Cloudy SCT120 25 -3.3 25 19.4 15% 25 75.92 1007.7
08 16:53 E 13 16.09 A Few Clouds FEW120 23.9 -3.3 16% 24 75.97 1008.1
08 15:53 Calm 16.09 Fair CLR 23.9 -3.3 16% 24 76.02 1008.9
08 14:53 Vrbl 7 16.09 Fair CLR 22.8 -6.1 14% 76.1 1009.7
08 13:53 Vrbl 7 16.09 Fair CLR 22.8 -3.3 17% 76.15 1010.7
08 12:53 Calm 16.09 Fair CLR 21.1 -1.1 23% 76.2 1011.7
08 11:53 Vrbl 7 16.09 Fair CLR 18.9 0.6 18.9 4.4 29% 76.25 1012.9
08 10:53 S 9 16.09 Fair CLR 17.2 0 31% 76.3 1013.3
08 09:53 Calm 16.09 Fair CLR 15 0.6 38% 76.3 1013.5
08 08:53 SE 6 16.09 Fair CLR 12.2 1.1 47% 76.3 1013.6
08 07:53 NE 7 16.09 Fair CLR 11.1 2.8 57% 76.3 1013.1
08 06:53 NW 6 16.09 Fair CLR 7.2 0.6 63% 76.25 1012.9
08 05:53 Calm 16.09 Fair CLR 4.4 0.6 10 4.4 77% 76.23 1012.8
08 04:53 Calm 16.09 Fair CLR 6.1 0.6 68% 76.23 1012.6
08 03:53 NW 6 16.09 Fair CLR 7.2 0 61% 76.2 1012.3
08 02:53 W 6 16.09 Fair CLR 7.8 0.6 61% 76.2 1012.5
08 01:53 W 7 16.09 Fair CLR 7.2 0.6 63% 6 76.2 1012.8
08 00:53 W 6 16.09 Fair CLR 7.8 0.6 61% 76.2 1013.0
07 23:53 W 7 16.09 Fair CLR 7.2 2.2 18.9 6.7 71% 6 76.2 1013.5
07 22:53 NW 6 16.09 Fair CLR 9.4 2.8 64% 76.2 1013.4
07 21:53 W 13 16.09 Fair CLR 10 3.3 63% 8 76.23 1013.7
07 20:53 Calm 16.09 Fair CLR 13.3 1.7 46% 76.15 1012.2
07 18:53 E 7 16.09 Fair CLR 17.8 0.6 32% 76.1 1011.5
07 17:53 Vrbl 6 16.09 Fair CLR 18.3 -0.6 18.9 10.6 28% 76.12 1011.8
07 16:53 Calm 16.09 Fair CLR 17.8 0 30% 76.12 1012.1
07 15:53 Vrbl 6 16.09 A Few Clouds FEW110 17.2 -1.1 29% 76.2 1013.2
07 14:53 Calm 16.09 A Few Clouds FEW090 15.6 -1.1 32% 76.28 1014.7
07 13:53 N 15 16.09 Partly Cloudy FEW100 SCT120 15 -0.6 35% 76.38 1015.6
07 12:53 Vrbl 9 16.09 Mostly Cloudy SCT100 BKN120 13.3 -0.6 39% 76.45 1017.0
07 11:53 Vrbl 9 16.09 Overcast FEW034 BKN070 OVC090 10.6 -1.1 10.6 1.7 45% 76.5 1018.3
07 10:53 Calm 16.09 A Few Clouds FEW100 9.4 -1.1 48% 76.56 1018.9
Date Time (mdt) Wind (kph) Vis. (km) Weather Sky Cond. Air Dwpt Max. Min. Relative Humidity Wind Chill (°C) Heat Index (°C) altimeter (cm) sea level (mb) 1 hr 3 hr 6 hr
6 hour
Temperature (ºC) Pressure Precipitation (cm)